createdAt,value
2024-05-09T00:00:43.762Z,15.21
2024-05-09T00:01:46.581Z,15.23
2024-05-09T00:02:49.076Z,15.23
2024-05-09T00:03:51.530Z,15.22
2024-05-09T00:04:54.017Z,15.23
2024-05-09T00:05:56.592Z,15.26
2024-05-09T00:06:59.152Z,15.27
2024-05-09T00:08:01.817Z,15.26
2024-05-09T00:09:04.502Z,15.27
2024-05-09T00:10:09.212Z,15.24
2024-05-09T00:11:16.399Z,15.24
2024-05-09T00:12:19.045Z,15.23
2024-05-09T00:13:21.511Z,15.22
2024-05-09T00:14:23.998Z,15.20
2024-05-09T00:15:26.495Z,15.21
2024-05-09T00:16:28.986Z,15.19
2024-05-09T00:17:31.621Z,15.15
2024-05-09T00:18:34.241Z,15.13
2024-05-09T00:19:36.728Z,15.14
2024-05-09T00:20:41.049Z,15.17
2024-05-09T00:21:44.241Z,15.19
2024-05-09T00:22:46.815Z,15.21
2024-05-09T00:23:49.235Z,15.18
2024-05-09T00:24:51.651Z,15.19
2024-05-09T00:25:54.074Z,15.19
2024-05-09T00:26:56.521Z,15.19
2024-05-09T00:27:58.976Z,15.18
2024-05-09T00:29:01.467Z,15.18
2024-05-09T00:30:04.365Z,15.19
2024-05-09T00:31:06.823Z,15.18
2024-05-09T00:32:09.272Z,15.17
2024-05-09T00:33:12.126Z,15.19
2024-05-09T00:34:14.675Z,15.21
2024-05-09T00:35:17.171Z,15.21
2024-05-09T00:36:19.717Z,15.18
2024-05-09T00:37:22.280Z,15.19
2024-05-09T00:38:24.813Z,15.20
2024-05-09T00:39:27.325Z,15.21
2024-05-09T00:40:40.853Z,15.24
2024-05-09T00:41:45.192Z,15.23
2024-05-09T00:42:47.744Z,15.24
2024-05-09T00:43:50.183Z,15.27
2024-05-09T00:44:52.615Z,15.27
2024-05-09T00:45:57.593Z,15.29
2024-05-09T00:47:00.324Z,15.27
2024-05-09T00:48:07.560Z,15.29
2024-05-09T00:49:11.992Z,15.31
2024-05-09T00:50:19.399Z,15.30
2024-05-09T00:51:25.438Z,15.32
2024-05-09T00:52:28.704Z,15.36
2024-05-09T00:53:31.403Z,15.37
2024-05-09T00:54:34.182Z,15.38
2024-05-09T00:55:37.895Z,15.36
2024-05-09T00:56:41.840Z,15.34
2024-05-09T00:57:45.044Z,15.32
2024-05-09T00:58:48.034Z,15.28
2024-05-09T00:59:50.593Z,15.24
2024-05-09T01:00:53.505Z,15.23
2024-05-09T01:01:56.175Z,15.19
2024-05-09T01:02:58.802Z,15.17
2024-05-09T01:04:02.050Z,15.16
2024-05-09T01:05:05.032Z,15.17
2024-05-09T01:06:07.474Z,15.15
2024-05-09T01:07:11.293Z,15.10
2024-05-09T01:08:13.992Z,15.09
2024-05-09T01:09:16.459Z,15.10
2024-05-09T01:10:27.447Z,15.08
2024-05-09T01:11:39.054Z,15.12
2024-05-09T01:12:41.592Z,15.15
2024-05-09T01:13:47.298Z,15.15
2024-05-09T01:14:49.701Z,15.15
2024-05-09T01:15:54.194Z,15.15
2024-05-09T01:16:56.729Z,15.15
2024-05-09T01:18:01.709Z,15.16
2024-05-09T01:19:04.830Z,15.15
2024-05-09T01:20:10.734Z,15.15
2024-05-09T01:21:18.683Z,15.18
2024-05-09T01:22:21.762Z,15.18
2024-05-09T01:23:24.237Z,15.15
2024-05-09T01:24:26.807Z,15.13
2024-05-09T01:25:29.263Z,15.12
2024-05-09T01:26:31.725Z,15.12
2024-05-09T01:27:34.134Z,15.13
2024-05-09T01:28:36.528Z,15.14
2024-05-09T01:29:38.944Z,15.16
2024-05-09T01:30:41.369Z,15.17
2024-05-09T01:31:45.919Z,15.18
2024-05-09T01:32:48.479Z,15.16
2024-05-09T01:33:51.194Z,15.15
2024-05-09T01:34:53.762Z,15.15
2024-05-09T01:35:56.180Z,15.15
2024-05-09T01:36:58.644Z,15.14
2024-05-09T01:38:01.112Z,15.14
2024-05-09T01:39:03.814Z,15.13
2024-05-09T01:40:12.189Z,15.13
2024-05-09T01:41:17.572Z,15.10
2024-05-09T01:42:20.021Z,15.11
2024-05-09T01:43:22.401Z,15.11
2024-05-09T01:44:24.878Z,15.11
2024-05-09T01:45:27.510Z,15.10
2024-05-09T01:46:29.919Z,15.09
2024-05-09T01:47:32.473Z,15.10
2024-05-09T01:48:35.019Z,15.09
2024-05-09T01:49:37.744Z,15.09
2024-05-09T01:50:42.576Z,15.12
2024-05-09T01:51:45.761Z,15.08
2024-05-09T01:52:48.141Z,15.07
2024-05-09T01:53:50.595Z,15.08
2024-05-09T01:54:53.036Z,15.11
2024-05-09T01:55:55.510Z,15.09
2024-05-09T01:56:57.982Z,15.07
2024-05-09T01:58:00.411Z,15.07
2024-05-09T01:59:02.913Z,15.05
2024-05-09T02:00:07.717Z,15.06
2024-05-09T02:01:10.313Z,15.03
2024-05-09T02:02:13.372Z,15.03
2024-05-09T02:03:17.637Z,15.01
2024-05-09T02:04:20.771Z,15.01
2024-05-09T02:05:23.452Z,14.99
2024-05-09T02:06:25.943Z,14.99
2024-05-09T02:07:28.432Z,14.97
2024-05-09T02:08:30.922Z,14.98
2024-05-09T02:09:33.452Z,14.97
2024-05-09T02:10:35.869Z,14.96
2024-05-09T02:11:44.819Z,14.97
2024-05-09T02:12:47.298Z,14.96
2024-05-09T02:13:49.719Z,14.97
2024-05-09T02:14:52.211Z,14.97
2024-05-09T02:15:56.173Z,14.99
2024-05-09T02:16:58.600Z,14.98
2024-05-09T02:18:01.237Z,14.98
2024-05-09T02:19:04.040Z,14.96
2024-05-09T02:20:10.747Z,14.92
2024-05-09T02:21:15.823Z,14.89
2024-05-09T02:22:18.402Z,14.86
2024-05-09T02:23:21.002Z,14.85
2024-05-09T02:24:23.428Z,14.86
2024-05-09T02:25:27.271Z,14.85
2024-05-09T02:26:29.714Z,14.83
2024-05-09T02:27:32.179Z,14.83
2024-05-09T02:28:34.639Z,14.85
2024-05-09T02:29:37.037Z,14.86
2024-05-09T02:30:41.601Z,14.85
2024-05-09T02:31:45.129Z,14.81
2024-05-09T02:32:48.004Z,14.77
2024-05-09T02:33:50.912Z,14.75
2024-05-09T02:34:53.530Z,14.74
2024-05-09T02:35:55.962Z,14.72
2024-05-09T02:36:58.446Z,14.72
2024-05-09T02:38:01.015Z,14.72
2024-05-09T02:39:03.570Z,14.75
2024-05-09T02:40:09.135Z,14.75
2024-05-09T02:41:13.938Z,14.77
2024-05-09T02:42:16.397Z,14.76
2024-05-09T02:43:18.857Z,14.75
2024-05-09T02:44:21.748Z,14.74
2024-05-09T02:45:25.061Z,14.76
2024-05-09T02:46:27.484Z,14.75
2024-05-09T02:47:30.071Z,14.71
2024-05-09T02:48:32.722Z,14.73
2024-05-09T02:49:35.299Z,14.72
2024-05-09T02:50:39.881Z,14.72
2024-05-09T02:51:42.801Z,14.72
2024-05-09T02:52:45.260Z,14.72
2024-05-09T02:53:47.769Z,14.70
2024-05-09T02:54:50.287Z,14.70
2024-05-09T02:55:52.703Z,14.71
2024-05-09T02:56:55.121Z,14.69
2024-05-09T02:57:57.599Z,14.68
2024-05-09T02:59:00.017Z,14.68
2024-05-09T03:00:03.661Z,14.67
2024-05-09T03:01:08.327Z,14.67
2024-05-09T03:02:10.957Z,14.64
2024-05-09T03:03:15.265Z,14.63
2024-05-09T03:04:19.030Z,14.66
2024-05-09T03:05:21.516Z,14.65
2024-05-09T03:06:23.927Z,14.61
2024-05-09T03:07:26.296Z,14.58
2024-05-09T03:08:28.879Z,14.57
2024-05-09T03:09:31.326Z,14.56
2024-05-09T03:10:36.610Z,14.55
2024-05-09T03:11:40.991Z,14.56
2024-05-09T03:12:43.642Z,14.58
2024-05-09T03:13:46.097Z,14.57
2024-05-09T03:14:50.583Z,14.57
2024-05-09T03:15:52.958Z,14.57
2024-05-09T03:16:55.341Z,14.61
2024-05-09T03:17:57.843Z,14.61
2024-05-09T03:19:00.357Z,14.59
2024-05-09T03:20:05.223Z,14.60
2024-05-09T03:21:09.358Z,14.59
2024-05-09T03:22:12.718Z,14.58
2024-05-09T03:23:15.407Z,14.58
2024-05-09T03:24:17.932Z,14.59
2024-05-09T03:25:20.451Z,14.58
2024-05-09T03:26:22.948Z,14.60
2024-05-09T03:27:25.568Z,14.59
2024-05-09T03:28:27.987Z,14.55
2024-05-09T03:29:30.499Z,14.59
2024-05-09T03:30:40.142Z,14.57
2024-05-09T03:31:45.297Z,14.51
2024-05-09T03:32:48.040Z,14.50
2024-05-09T03:33:50.834Z,14.49
2024-05-09T03:34:53.281Z,14.45
2024-05-09T03:35:55.698Z,14.44
2024-05-09T03:36:58.100Z,14.47
2024-05-09T03:38:00.586Z,14.49
2024-05-09T03:39:03.093Z,14.51
2024-05-09T03:40:11.801Z,14.54
2024-05-09T03:41:19.520Z,14.55
2024-05-09T03:42:21.947Z,14.57
2024-05-09T03:43:24.318Z,14.52
2024-05-09T03:44:26.800Z,14.52
2024-05-09T03:45:29.435Z,14.50
2024-05-09T03:46:31.878Z,14.53
2024-05-09T03:47:35.773Z,14.54
2024-05-09T03:48:38.409Z,14.54
2024-05-09T03:49:41.099Z,14.56
2024-05-09T03:50:43.647Z,14.57
2024-05-09T03:51:47.021Z,14.58
2024-05-09T03:52:49.535Z,14.59
2024-05-09T03:53:52.033Z,14.61
2024-05-09T03:54:54.443Z,14.58
2024-05-09T03:55:57.478Z,14.55
2024-05-09T03:56:59.955Z,14.59
2024-05-09T03:58:02.363Z,14.56
2024-05-09T03:59:04.767Z,14.58
2024-05-09T04:00:14.834Z,14.59
2024-05-09T04:01:27.456Z,14.59
2024-05-09T04:02:29.999Z,14.59
2024-05-09T04:03:34.303Z,14.61
2024-05-09T04:04:36.922Z,14.56
2024-05-09T04:05:44.341Z,14.55
2024-05-09T04:06:47.170Z,14.55
2024-05-09T04:07:49.554Z,14.56
2024-05-09T04:08:52.094Z,14.54
2024-05-09T04:09:54.541Z,14.58
2024-05-09T04:10:56.996Z,14.60
2024-05-09T04:11:59.583Z,14.56
2024-05-09T04:13:03.041Z,14.56
2024-05-09T04:14:05.791Z,14.57
2024-05-09T04:15:11.202Z,14.58
2024-05-09T04:16:15.143Z,14.59
2024-05-09T04:17:17.558Z,14.61
2024-05-09T04:18:19.988Z,14.60
2024-05-09T04:19:22.605Z,14.58
2024-05-09T04:20:35.818Z,14.59
2024-05-09T04:21:41.666Z,14.61
2024-05-09T04:22:44.129Z,14.60
2024-05-09T04:23:46.550Z,14.58
2024-05-09T04:24:48.906Z,14.59
2024-05-09T04:25:51.345Z,14.60
2024-05-09T04:26:53.891Z,14.65
2024-05-09T04:27:56.413Z,14.69
2024-05-09T04:28:58.942Z,14.64
2024-05-09T04:30:01.338Z,14.64
2024-05-09T04:31:03.784Z,14.67
2024-05-09T04:32:07.389Z,14.69
2024-05-09T04:33:12.266Z,14.72
2024-05-09T04:34:16.590Z,14.74
2024-05-09T04:35:21.334Z,14.78
2024-05-09T04:36:24.054Z,14.81
2024-05-09T04:37:26.602Z,14.84
2024-05-09T04:38:30.422Z,14.83
2024-05-09T04:39:32.865Z,14.85
2024-05-09T04:40:37.130Z,14.86
2024-05-09T04:41:40.284Z,14.84
2024-05-09T04:42:42.862Z,14.83
2024-05-09T04:43:45.300Z,14.83
2024-05-09T04:44:49.908Z,14.81
2024-05-09T04:45:52.335Z,14.80
2024-05-09T04:46:54.641Z,14.74
2024-05-09T04:47:58.241Z,14.74
2024-05-09T04:49:01.068Z,14.68
2024-05-09T04:50:05.465Z,14.70
2024-05-09T04:51:09.831Z,14.73
2024-05-09T04:52:12.504Z,14.78
2024-05-09T04:53:18.143Z,14.80
2024-05-09T04:55:25.864Z,14.82
2024-05-09T04:56:28.301Z,14.86
2024-05-09T04:57:30.832Z,14.86
2024-05-09T04:58:33.306Z,14.94
2024-05-09T04:59:36.683Z,14.98
2024-05-09T05:00:40.696Z,14.97
2024-05-09T05:01:43.594Z,14.93
2024-05-09T05:02:45.999Z,14.90
2024-05-09T05:03:48.646Z,14.93
2024-05-09T05:04:51.488Z,14.91
2024-05-09T05:05:54.191Z,14.91
2024-05-09T05:06:58.381Z,14.90
2024-05-09T05:08:02.178Z,14.95
2024-05-09T05:09:04.580Z,15.01
2024-05-09T05:10:09.354Z,15.08
2024-05-09T05:11:14.362Z,15.17
2024-05-09T05:12:35.675Z,15.17
2024-05-09T05:13:40.845Z,15.26
2024-05-09T05:14:43.909Z,15.27
2024-05-09T05:15:46.951Z,15.28
2024-05-09T05:16:49.498Z,15.31
2024-05-09T05:17:52.143Z,15.31
2024-05-09T05:18:54.838Z,15.32
2024-05-09T05:19:57.891Z,15.35
2024-05-09T05:21:00.370Z,15.38
2024-05-09T05:22:02.826Z,15.34
2024-05-09T05:23:08.427Z,15.39
2024-05-09T05:24:10.837Z,15.40
2024-05-09T05:25:13.310Z,15.43
2024-05-09T05:26:20.536Z,15.47
2024-05-09T05:27:23.097Z,15.48
2024-05-09T05:28:25.536Z,15.49
2024-05-09T05:29:28.005Z,15.52
2024-05-09T05:30:34.540Z,15.56
2024-05-09T05:31:37.546Z,15.58
2024-05-09T05:32:40.117Z,15.61
2024-05-09T05:33:42.597Z,15.61
2024-05-09T05:34:45.116Z,15.66
2024-05-09T05:35:47.709Z,15.67
2024-05-09T05:36:50.125Z,15.73
2024-05-09T05:37:52.517Z,15.81
2024-05-09T05:38:54.982Z,15.90
2024-05-09T05:39:58.409Z,15.93
2024-05-09T05:41:00.869Z,16.00
2024-05-09T05:42:03.314Z,16.04
2024-05-09T05:43:06.586Z,16.07
2024-05-09T05:44:11.379Z,16.07
2024-05-09T05:45:13.876Z,16.02
2024-05-09T05:46:16.406Z,15.97
2024-05-09T05:47:18.843Z,15.93
2024-05-09T05:48:21.560Z,15.97
2024-05-09T05:49:24.151Z,16.01
2024-05-09T05:50:32.845Z,16.06
2024-05-09T05:51:38.697Z,16.14
2024-05-09T05:52:41.073Z,16.11
2024-05-09T05:53:44.917Z,16.10
2024-05-09T05:54:48.773Z,16.14
2024-05-09T05:55:51.298Z,16.10
2024-05-09T05:56:53.690Z,16.10
2024-05-09T05:57:56.071Z,16.13
2024-05-09T05:58:58.542Z,16.15
2024-05-09T06:00:00.939Z,16.18
2024-05-09T06:01:03.353Z,16.22
2024-05-09T06:02:06.305Z,16.23
2024-05-09T06:03:10.226Z,16.28
2024-05-09T06:04:13.231Z,16.29
2024-05-09T06:05:15.669Z,16.35
2024-05-09T06:06:18.121Z,16.43
2024-05-09T06:07:20.469Z,16.39
2024-05-09T06:08:23.716Z,16.38
2024-05-09T06:09:27.085Z,16.41
2024-05-09T06:10:37.627Z,16.42
2024-05-09T06:11:43.028Z,16.43
2024-05-09T06:12:45.509Z,16.35
2024-05-09T06:13:48.011Z,16.29
2024-05-09T06:14:50.454Z,16.19
2024-05-09T06:15:52.795Z,16.12
2024-05-09T06:16:58.117Z,16.06
2024-05-09T06:18:00.907Z,16.08
2024-05-09T06:19:03.766Z,16.13
2024-05-09T06:20:13.278Z,16.15
2024-05-09T06:21:19.486Z,16.08
2024-05-09T06:22:22.024Z,16.00
2024-05-09T06:23:24.441Z,15.99
2024-05-09T06:24:26.798Z,15.99
2024-05-09T06:25:29.253Z,16.01
2024-05-09T06:26:32.451Z,15.94
2024-05-09T06:27:34.969Z,15.92
2024-05-09T06:28:37.416Z,15.92
2024-05-09T06:29:39.916Z,15.87
2024-05-09T06:30:43.329Z,15.84
2024-05-09T06:31:46.546Z,15.86
2024-05-09T06:32:49.108Z,15.91
2024-05-09T06:33:51.737Z,15.93
2024-05-09T06:34:54.357Z,15.97
2024-05-09T06:35:59.669Z,16.00
2024-05-09T06:37:02.077Z,16.02
2024-05-09T06:38:05.058Z,16.03
2024-05-09T06:39:10.248Z,16.05
2024-05-09T06:40:17.390Z,16.09
2024-05-09T06:41:19.929Z,16.18
2024-05-09T06:42:22.358Z,16.22
2024-05-09T06:43:24.723Z,16.22
2024-05-09T06:44:27.263Z,16.20
2024-05-09T06:45:29.826Z,16.19
2024-05-09T06:46:32.260Z,16.29
2024-05-09T06:47:34.809Z,16.36
2024-05-09T06:48:37.638Z,16.54
2024-05-09T06:49:41.550Z,16.67
2024-05-09T06:50:44.386Z,16.70
2024-05-09T06:51:46.875Z,16.72
2024-05-09T06:52:49.287Z,16.72
2024-05-09T06:53:51.725Z,16.74
2024-05-09T06:54:54.174Z,16.78
2024-05-09T06:55:56.631Z,16.93
2024-05-09T06:56:59.041Z,17.09
2024-05-09T06:58:01.476Z,17.11
2024-05-09T06:59:04.009Z,17.16
2024-05-09T07:00:10.297Z,17.11
2024-05-09T07:01:15.098Z,17.07
2024-05-09T07:02:17.593Z,17.04
2024-05-09T07:03:20.265Z,17.20
2024-05-09T07:04:22.937Z,17.13
2024-05-09T07:05:25.742Z,17.21
2024-05-09T07:06:28.341Z,17.19
2024-05-09T07:07:30.782Z,17.14
2024-05-09T07:08:33.346Z,17.11
2024-05-09T07:09:36.178Z,17.30
2024-05-09T07:10:38.767Z,17.42
2024-05-09T07:11:41.646Z,17.36
2024-05-09T07:12:44.209Z,17.50
2024-05-09T07:13:46.791Z,17.55
2024-05-09T07:14:49.252Z,17.49
2024-05-09T07:15:51.648Z,17.63
2024-05-09T07:16:54.218Z,17.63
2024-05-09T07:17:56.924Z,17.76
2024-05-09T07:18:59.656Z,17.72
2024-05-09T07:20:02.305Z,17.57
2024-05-09T07:21:05.226Z,17.63
2024-05-09T07:22:07.670Z,17.72
2024-05-09T07:23:10.967Z,17.84
2024-05-09T07:24:13.498Z,17.81
2024-05-09T07:25:15.916Z,17.94
2024-05-09T07:26:18.675Z,18.15
2024-05-09T07:27:21.172Z,18.22
2024-05-09T07:28:23.583Z,18.10
2024-05-09T07:29:26.045Z,17.97
2024-05-09T07:30:33.433Z,18.05
2024-05-09T07:31:37.174Z,18.01
2024-05-09T07:32:39.782Z,18.13
2024-05-09T07:33:42.470Z,18.12
2024-05-09T07:34:45.122Z,18.29
2024-05-09T07:35:47.719Z,18.37
2024-05-09T07:36:50.147Z,18.48
2024-05-09T07:37:52.662Z,18.46
2024-05-09T07:38:55.127Z,18.58
2024-05-09T07:39:57.545Z,18.71
2024-05-09T07:41:00.116Z,18.79
2024-05-09T07:42:02.584Z,18.88
2024-05-09T07:43:05.420Z,18.96
2024-05-09T07:44:07.872Z,18.76
2024-05-09T07:45:29.639Z,18.71
2024-05-09T07:49:11.911Z,18.62
2024-05-09T07:50:53.215Z,18.65
2024-05-09T07:53:08.288Z,18.68
2024-05-09T07:53:35.489Z,18.60
2024-05-09T07:54:16.276Z,18.47
2024-05-09T07:55:19.145Z,18.58
2024-05-09T07:56:23.331Z,18.78
2024-05-09T07:57:26.719Z,18.96
2024-05-09T07:58:29.263Z,19.22
2024-05-09T07:59:35.056Z,19.29
2024-05-09T08:00:39.617Z,19.56
2024-05-09T08:01:42.265Z,19.62
2024-05-09T08:02:44.958Z,19.80
2024-05-09T08:03:47.746Z,20.02
2024-05-09T08:04:50.283Z,20.20
2024-05-09T08:05:52.942Z,20.29
2024-05-09T08:06:55.619Z,20.34
2024-05-09T08:07:58.071Z,20.45
2024-05-09T08:09:05.318Z,20.53
2024-05-09T08:10:12.896Z,20.57
2024-05-09T08:11:17.820Z,20.67
2024-05-09T08:12:20.266Z,20.70
2024-05-09T08:13:23.071Z,20.82
2024-05-09T08:14:25.609Z,20.86
2024-05-09T08:15:28.265Z,20.85
2024-05-09T08:16:30.889Z,20.89
2024-05-09T08:17:33.482Z,21.01
2024-05-09T08:18:36.158Z,21.07
2024-05-09T08:19:40.915Z,21.09
2024-05-09T08:20:43.465Z,20.95
2024-05-09T08:21:45.908Z,20.56
2024-05-09T08:22:48.369Z,20.42
2024-05-09T08:23:50.748Z,20.44
2024-05-09T08:24:53.212Z,20.32
2024-05-09T08:25:55.599Z,20.09
2024-05-09T08:26:57.986Z,20.02
2024-05-09T08:28:00.469Z,19.97
2024-05-09T08:29:03.482Z,19.85
2024-05-09T08:30:08.022Z,19.79
2024-05-09T08:31:12.867Z,19.99
2024-05-09T08:32:15.404Z,20.20
2024-05-09T08:33:18.082Z,20.41
2024-05-09T08:34:20.877Z,20.60
2024-05-09T08:35:23.394Z,20.72
2024-05-09T08:36:25.773Z,20.46
2024-05-09T08:37:32.813Z,20.33
2024-05-09T08:38:39.334Z,20.37
2024-05-09T08:39:41.767Z,20.43
2024-05-09T08:40:44.416Z,20.57
2024-05-09T08:41:50.066Z,20.70
2024-05-09T08:42:56.277Z,20.85
2024-05-09T08:43:58.850Z,21.03
2024-05-09T08:45:01.781Z,21.26
2024-05-09T08:46:04.870Z,21.25
2024-05-09T08:47:09.766Z,21.21
2024-05-09T08:48:14.545Z,21.20
2024-05-09T08:49:18.501Z,21.31
2024-05-09T08:50:31.644Z,21.47
2024-05-09T08:51:40.467Z,21.57
2024-05-09T08:52:43.256Z,21.54
2024-05-09T08:53:45.646Z,21.61
2024-05-09T08:54:48.139Z,21.70
2024-05-09T08:55:51.625Z,21.77
2024-05-09T08:56:54.109Z,21.84
2024-05-09T08:57:56.602Z,21.78
2024-05-09T08:59:01.387Z,21.87
2024-05-09T09:00:09.945Z,21.95
2024-05-09T09:01:15.985Z,21.54
2024-05-09T09:02:19.463Z,21.20
2024-05-09T09:03:25.486Z,20.98
2024-05-09T09:04:28.913Z,20.94
2024-05-09T09:05:32.276Z,21.29
2024-05-09T09:06:35.050Z,21.67
2024-05-09T09:07:39.124Z,22.20
2024-05-09T09:08:41.562Z,22.68
2024-05-09T09:09:45.466Z,23.21
2024-05-09T09:10:48.048Z,23.57
2024-05-09T09:11:50.621Z,23.80
2024-05-09T09:12:59.820Z,24.00
2024-05-09T09:14:02.368Z,23.89
2024-05-09T09:15:05.013Z,23.76
2024-05-09T09:16:07.789Z,23.67
2024-05-09T09:17:16.765Z,23.62
2024-05-09T09:18:19.450Z,23.81
2024-05-09T09:19:23.270Z,24.05
2024-05-09T09:20:34.106Z,24.47
2024-05-09T09:21:39.130Z,24.76
2024-05-09T09:22:41.537Z,24.98
2024-05-09T09:23:43.925Z,25.11
2024-05-09T09:24:46.508Z,25.02
2024-05-09T09:25:49.084Z,25.43
2024-05-09T09:26:51.543Z,25.36
2024-05-09T09:27:54.047Z,25.58
2024-05-09T09:29:00.900Z,25.55
2024-05-09T09:30:03.665Z,25.21
2024-05-09T09:31:07.002Z,24.76
2024-05-09T09:32:10.771Z,24.66
2024-05-09T09:33:13.468Z,24.74
2024-05-09T09:34:16.227Z,24.48
2024-05-09T09:35:18.803Z,24.29
2024-05-09T09:36:21.180Z,24.50
2024-05-09T09:37:28.952Z,24.98
2024-05-09T09:38:32.618Z,24.96
2024-05-09T09:39:36.669Z,25.08
2024-05-09T09:40:46.836Z,25.06
2024-05-09T09:41:52.278Z,25.21
2024-05-09T09:42:57.824Z,25.57
2024-05-09T09:44:00.968Z,25.93
2024-05-09T09:45:05.566Z,25.72
2024-05-09T09:46:12.291Z,25.67
2024-05-09T09:47:15.851Z,25.97
2024-05-09T09:48:20.364Z,26.18
2024-05-09T09:49:32.995Z,26.62
2024-05-09T09:50:37.033Z,26.30
2024-05-09T09:51:43.776Z,26.45
2024-05-09T09:52:46.869Z,26.59
2024-05-09T09:53:49.907Z,27.03
2024-05-09T09:54:52.578Z,26.77
2024-05-09T09:55:56.323Z,27.19
2024-05-09T09:56:58.720Z,26.79
2024-05-09T09:58:01.415Z,26.89
2024-05-09T09:59:04.888Z,27.06
2024-05-09T10:00:11.761Z,27.15
2024-05-09T10:01:14.598Z,27.46
2024-05-09T10:02:17.341Z,27.57
2024-05-09T10:03:20.024Z,27.55
2024-05-09T10:04:22.773Z,27.54
2024-05-09T10:05:25.927Z,27.31
2024-05-09T10:06:29.160Z,27.31
2024-05-09T10:07:31.951Z,27.21
2024-05-09T10:08:35.193Z,27.40
2024-05-09T10:09:37.638Z,27.56
2024-05-09T10:10:40.297Z,27.30
2024-05-09T10:11:49.093Z,26.38
2024-05-09T10:12:59.788Z,26.76
2024-05-09T10:14:02.357Z,26.98
2024-05-09T10:15:11.397Z,27.29
2024-05-09T10:16:20.699Z,26.52
2024-05-09T10:17:23.408Z,26.43
2024-05-09T10:18:36.652Z,26.16
2024-05-09T10:19:39.155Z,25.70
2024-05-09T10:20:42.317Z,25.53
2024-05-09T10:21:47.618Z,25.24
2024-05-09T10:22:50.708Z,25.57
2024-05-09T10:24:07.300Z,25.73
2024-05-09T10:25:09.920Z,25.87
2024-05-09T10:26:12.519Z,26.26
2024-05-09T10:27:15.619Z,26.31
2024-05-09T10:28:18.046Z,26.18
2024-05-09T10:29:21.007Z,25.82
2024-05-09T10:31:30.056Z,26.56
2024-05-09T10:32:38.919Z,27.02
2024-05-09T10:33:52.394Z,27.04
2024-05-09T10:35:07.077Z,26.84
2024-05-09T10:36:29.132Z,26.54
2024-05-09T10:37:32.068Z,26.54
2024-05-09T10:38:34.599Z,26.68
2024-05-09T10:39:40.026Z,26.49
2024-05-09T10:40:42.945Z,26.38
2024-05-09T10:41:45.448Z,26.26
2024-05-09T10:42:48.053Z,26.43
2024-05-09T10:43:51.086Z,26.56
2024-05-09T10:44:53.693Z,26.53
2024-05-09T10:45:56.165Z,26.25
2024-05-09T10:46:58.601Z,26.26
2024-05-09T10:48:01.280Z,26.68
2024-05-09T10:49:06.308Z,27.26
2024-05-09T10:50:18.475Z,27.44
2024-05-09T10:51:27.996Z,27.60
2024-05-09T10:52:30.494Z,27.54
2024-05-09T10:53:40.883Z,27.63
2024-05-09T10:54:43.338Z,28.13
2024-05-09T10:55:59.025Z,28.37
2024-05-09T10:57:01.479Z,28.59
2024-05-09T10:58:04.080Z,29.13
2024-05-09T10:59:06.559Z,29.14
2024-05-09T11:00:15.797Z,29.06
2024-05-09T11:01:25.401Z,28.67
2024-05-09T11:02:28.348Z,28.21
2024-05-09T11:03:31.113Z,28.27
2024-05-09T11:04:34.419Z,28.49
2024-05-09T11:05:37.242Z,28.97
2024-05-09T11:06:40.157Z,29.01
2024-05-09T11:07:42.641Z,28.92
2024-05-09T11:08:46.204Z,27.86
2024-05-09T11:09:49.083Z,27.51
2024-05-09T11:10:53.218Z,28.03
2024-05-09T11:11:55.895Z,28.21
2024-05-09T11:12:58.368Z,28.22
2024-05-09T11:14:00.818Z,28.33
2024-05-09T11:15:03.344Z,27.94
2024-05-09T11:16:17.618Z,27.34
2024-05-09T11:17:20.257Z,26.99
2024-05-09T11:18:25.883Z,26.95
2024-05-09T11:19:42.179Z,27.41
2024-05-09T11:20:44.717Z,27.62
2024-05-09T11:21:51.809Z,28.13
2024-05-09T11:22:54.359Z,28.79
2024-05-09T11:23:57.372Z,28.82
2024-05-09T11:24:59.889Z,28.93
2024-05-09T11:26:02.410Z,29.45
2024-05-09T11:27:05.855Z,29.29
2024-05-09T11:28:08.419Z,29.10
2024-05-09T11:29:10.885Z,28.99
2024-05-09T11:30:26.886Z,28.43
2024-05-09T11:31:45.616Z,26.97
2024-05-09T11:32:48.353Z,27.26
2024-05-09T11:33:54.114Z,26.94
2024-05-09T11:34:56.570Z,27.32
2024-05-09T11:35:58.995Z,28.38
2024-05-09T11:37:01.576Z,28.78
2024-05-09T11:38:04.512Z,28.98
2024-05-09T11:39:07.041Z,29.36
2024-05-09T11:40:16.791Z,29.42
2024-05-09T11:41:24.462Z,29.13
2024-05-09T11:42:26.941Z,29.33
2024-05-09T11:43:29.494Z,29.44
2024-05-09T11:44:32.109Z,29.33
2024-05-09T11:45:34.830Z,29.34
2024-05-09T11:46:37.288Z,29.48
2024-05-09T11:47:40.023Z,29.21
2024-05-09T11:48:42.800Z,28.53
2024-05-09T11:49:45.327Z,28.05
2024-05-09T11:50:47.762Z,28.10
2024-05-09T11:51:50.248Z,27.71
2024-05-09T11:52:52.716Z,27.87
2024-05-09T11:53:55.227Z,28.17
2024-05-09T11:54:57.764Z,28.27
2024-05-09T11:56:00.274Z,28.35
2024-05-09T11:57:02.708Z,28.85
2024-05-09T11:58:05.600Z,28.82
2024-05-09T11:59:08.217Z,28.60
2024-05-09T12:00:14.948Z,27.98
2024-05-09T12:01:21.338Z,28.16
2024-05-09T12:02:25.147Z,28.76
2024-05-09T12:03:27.768Z,29.12
2024-05-09T12:04:30.381Z,29.58
2024-05-09T12:05:34.006Z,29.80
2024-05-09T12:06:38.049Z,29.92
2024-05-09T12:07:40.584Z,29.85
2024-05-09T12:08:43.043Z,30.60
2024-05-09T12:09:45.606Z,30.43
2024-05-09T12:10:48.270Z,30.77
2024-05-09T12:11:50.826Z,31.23
2024-05-09T12:12:54.018Z,31.33
2024-05-09T12:13:56.478Z,31.62
2024-05-09T12:14:58.928Z,31.70
2024-05-09T12:16:01.434Z,31.20
2024-05-09T12:17:05.771Z,30.83
2024-05-09T12:18:08.692Z,30.68
2024-05-09T12:19:11.239Z,30.15
2024-05-09T12:20:21.318Z,29.64
2024-05-09T12:21:31.118Z,29.21
2024-05-09T12:22:33.584Z,29.25
2024-05-09T12:23:35.939Z,29.85
2024-05-09T12:24:38.377Z,29.57
2024-05-09T12:25:40.929Z,29.69
2024-05-09T12:26:43.430Z,29.80
2024-05-09T12:27:46.088Z,29.65
2024-05-09T12:28:48.684Z,29.51
2024-05-09T12:29:51.162Z,29.82
2024-05-09T12:30:53.574Z,29.75
2024-05-09T12:31:56.124Z,29.32
2024-05-09T12:32:58.608Z,29.97
2024-05-09T12:34:01.342Z,30.44
2024-05-09T12:35:04.013Z,30.96
2024-05-09T12:36:06.826Z,31.60
2024-05-09T12:37:09.392Z,31.35
2024-05-09T12:38:11.899Z,31.66
2024-05-09T12:39:14.336Z,32.09
2024-05-09T12:40:23.182Z,31.75
2024-05-09T12:41:33.873Z,32.03
2024-05-09T12:42:36.380Z,32.36
2024-05-09T12:43:38.851Z,32.37
2024-05-09T12:44:41.316Z,32.28
2024-05-09T12:45:43.840Z,31.83
2024-05-09T12:46:46.322Z,31.58
2024-05-09T12:47:48.760Z,31.31
2024-05-09T12:48:52.095Z,31.14
2024-05-09T12:49:54.846Z,31.15
2024-05-09T12:50:57.870Z,31.08
2024-05-09T12:52:00.536Z,31.04
2024-05-09T12:53:04.208Z,31.06
2024-05-09T12:54:07.207Z,30.93
2024-05-09T12:55:11.011Z,30.46
2024-05-09T12:56:13.500Z,30.96
2024-05-09T12:57:16.016Z,31.31
2024-05-09T12:58:18.766Z,31.31
2024-05-09T12:59:21.215Z,31.19
2024-05-09T13:00:28.339Z,30.72
2024-05-09T13:01:36.149Z,30.19
2024-05-09T13:02:38.813Z,29.95
2024-05-09T13:03:41.466Z,30.06
2024-05-09T13:04:44.074Z,29.89
2024-05-09T13:05:46.848Z,30.05
2024-05-09T13:06:49.495Z,29.61
2024-05-09T13:07:52.024Z,29.72
2024-05-09T13:08:54.493Z,30.39
2024-05-09T13:09:56.882Z,30.49
2024-05-09T13:10:59.375Z,30.04
2024-05-09T13:12:01.897Z,29.53
2024-05-09T13:13:04.602Z,29.97
2024-05-09T13:14:07.146Z,30.35
2024-05-09T13:15:09.577Z,30.90
2024-05-09T13:16:12.022Z,31.00
2024-05-09T13:17:14.422Z,31.63
2024-05-09T13:18:16.998Z,31.76
2024-05-09T13:19:19.449Z,32.23
2024-05-09T13:20:29.329Z,31.91
2024-05-09T13:21:35.573Z,32.18
2024-05-09T13:22:39.179Z,32.30
2024-05-09T13:23:41.661Z,32.71
2024-05-09T13:24:44.103Z,32.44
2024-05-09T13:25:46.534Z,32.96
2024-05-09T13:26:48.960Z,32.78
2024-05-09T13:27:51.398Z,32.58
2024-05-09T13:28:53.814Z,32.41
2024-05-09T13:29:57.563Z,32.34
2024-05-09T13:31:00.080Z,32.61
2024-05-09T13:32:02.571Z,32.28
2024-05-09T13:33:05.535Z,32.63
2024-05-09T13:34:08.468Z,32.56
2024-05-09T13:35:11.021Z,31.97
2024-05-09T13:36:13.579Z,31.40
2024-05-09T13:37:16.081Z,31.14
2024-05-09T13:38:20.144Z,31.35
2024-05-09T13:39:22.834Z,31.38
2024-05-09T13:40:32.231Z,31.65
2024-05-09T13:41:37.169Z,32.08
2024-05-09T13:42:39.602Z,32.04
2024-05-09T13:43:41.995Z,32.29
2024-05-09T13:44:44.409Z,32.85
2024-05-09T13:45:46.993Z,33.47